Terminal Aerodrome Forecast
Issued by NWS Paducah, KY

Home | Current Version | Previous Version | Text Only | Print | Product List | Glossary Off
Versions: 1 2 3 4 5 6 7 8 9 10 11 12 13 14

364
FTUS43 KPAH 052320
TAFEVV
TAF
KEVV 052320Z 0600/0624 36010KT P6SM SCT035 BKN050
      TEMPO 0600/0602 SCT050
     FM060200 VRB03KT P6SM SCT050
     FM061400 32007KT P6SM BKN025
     FM061800 32008KT P6SM SCT030 BKN100
      TEMPO 0618/0622 BKN030=

USA.gov is the U.S. government's official web portal to all federal, state and local government web resources and services.